Lewiston, Maine
Current Conditions -  °F | °C
As of 6:15 PM on Wednesday 22 Oct 2014 (Local Time) from KLEW Reporting Station
Overcast Overcast  
Wind Chill: 38°   Ceiling: 1100
Heat Index: 46°   Visibility: 8mi
Dew Point: 43°   Wind: 24mph
Humidity: 87%   Direction: 40°NE
Pressure: 30.08"   Gusts: 32mph
Location:  44.1°N, 70.22°W
Report Text: KLEW 222215Z AUTO 04021G28KT 8SM OVC011 08/06 A3008 RMK AO1
Loading
Personal Weather Stations






























Interactive Weather Map
Tropical Storm Tracking
New forecast layout! Learn more

10-Day Weather Forecast

Advertisements
Track Severe Weather on mobile